Time;durP1;ratioP1;P1;durP2;ratioP2;P2;SDS_P1;SDS_P2;PMS_P1;PMS_P2;Temp;Humidity;BMP_temperature;BMP_pressure;BME280_temperature;BME280_humidity;BME280_pressure;Samples;Min_cycle;Max_cycle;Signal;HPM_P1;HPM_P2
2020/12/30 00:02:22;;;;;;;4.85;3.13;;;1.20;99.90;;;;;;4985428;28;20225;-72
2020/12/30 00:04:48;;;;;;;2.90;2.70;;;1.20;99.90;;;;;;4986369;28;20223;-72
2020/12/30 00:07:14;;;;;;;4.68;3.22;;;1.30;99.90;;;;;;4985906;28;20199;-72
2020/12/30 00:09:40;;;;;;;3.20;2.90;;;1.30;99.90;;;;;;4985747;28;20211;-72
2020/12/30 00:12:07;;;;;;;2.80;2.33;;;1.20;99.90;;;;;;4985018;28;20207;-72
2020/12/30 00:14:33;;;;;;;3.10;2.80;;;1.20;99.90;;;;;;4985800;28;20231;-72
2020/12/30 00:17:00;;;;;;;3.33;2.53;;;1.30;99.90;;;;;;4986009;28;20226;-72
2020/12/30 00:19:26;;;;;;;2.83;2.50;;;1.30;99.90;;;;;;4985723;28;20210;-72
2020/12/30 00:21:52;;;;;;;2.35;2.15;;;1.30;99.90;;;;;;4985457;28;20215;-73
2020/12/30 00:24:18;;;;;;;3.13;2.80;;;1.40;99.90;;;;;;4986119;28;20616;-72
2020/12/30 00:26:45;;;;;;;2.60;2.33;;;1.50;99.90;;;;;;4985465;28;20198;-72
2020/12/30 00:29:11;;;;;;;3.10;2.80;;;1.50;99.90;;;;;;4985582;28;20206;-72
2020/12/30 00:31:37;;;;;;;4.65;2.72;;;1.60;99.90;;;;;;4985068;28;20218;-72
2020/12/30 00:34:04;;;;;;;2.92;2.35;;;1.50;99.90;;;;;;4986150;28;20219;-72
2020/12/30 00:36:30;;;;;;;2.28;2.08;;;1.50;99.90;;;;;;4985379;28;20231;-72
2020/12/30 00:38:56;;;;;;;5.75;2.65;;;1.40;99.90;;;;;;4985048;28;20211;-72
2020/12/30 00:41:22;;;;;;;2.83;2.63;;;1.40;99.90;;;;;;4985798;28;20210;-71
2020/12/30 00:43:49;;;;;;;4.03;2.50;;;1.40;99.90;;;;;;4985349;28;20258;-71
2020/12/30 00:46:16;;;;;;;5.40;2.78;;;1.40;99.90;;;;;;4986319;28;20226;-72
2020/12/30 00:48:43;;;;;;;3.78;2.65;;;1.30;99.90;;;;;;4986398;28;20211;-72
2020/12/30 00:51:13;;;;;;;3.22;2.47;;;1.30;99.90;;;;;;4985889;28;20230;-72
2020/12/30 00:53:40;;;;;;;3.33;2.90;;;1.30;99.90;;;;;;4985794;28;20273;-72
2020/12/30 00:56:07;;;;;;;4.35;2.78;;;1.30;99.90;;;;;;4986498;28;20559;-72
2020/12/30 00:58:34;;;;;;;5.43;2.83;;;1.30;99.90;;;;;;4986982;28;20203;-72
2020/12/30 01:01:00;;;;;;;4.35;3.17;;;1.30;99.90;;;;;;4986215;28;20211;-72
2020/12/30 01:03:27;;;;;;;2.83;2.63;;;1.30;99.90;;;;;;4985477;28;20282;-72
2020/12/30 01:05:53;;;;;;;2.95;2.65;;;1.30;99.90;;;;;;4985818;28;21041;-71
2020/12/30 01:08:20;;;;;;;4.28;2.65;;;1.30;99.90;;;;;;4985872;28;20203;-72
2020/12/30 01:10:46;;;;;;;2.95;2.65;;;1.30;99.90;;;;;;4989182;28;20203;-72
2020/12/30 01:13:12;;;;;;;2.83;2.35;;;1.30;99.90;;;;;;5152932;23;20210;-71
2020/12/30 01:15:39;;;;;;;2.45;2.25;;;1.30;99.90;;;;;;4988015;28;20203;-70
2020/12/30 01:18:05;;;;;;;3.28;2.80;;;1.40;99.90;;;;;;4989790;28;20622;-70
2020/12/30 01:20:31;;;;;;;3.75;2.67;;;1.40;99.90;;;;;;4992262;28;20203;-71
2020/12/30 01:22:57;;;;;;;3.42;2.60;;;1.40;99.90;;;;;;4992024;28;20211;-71
2020/12/30 01:25:25;;;;;;;2.35;2.10;;;1.50;99.90;;;;;;4992406;28;20207;-69
2020/12/30 01:27:51;;;;;;;2.63;2.42;;;1.50;99.90;;;;;;4992563;28;20275;-72
2020/12/30 01:30:17;;;;;;;3.22;2.60;;;1.50;99.90;;;;;;4992530;28;20210;-71
2020/12/30 01:32:43;;;;;;;4.95;2.97;;;1.60;99.90;;;;;;4991550;28;20214;-72
2020/12/30 01:35:09;;;;;;;2.50;2.30;;;1.60;99.90;;;;;;4992555;28;20612;-71
2020/12/30 01:37:36;;;;;;;2.80;2.50;;;1.60;99.90;;;;;;4992019;28;20230;-72
2020/12/30 01:40:02;;;;;;;3.88;2.75;;;1.60;99.90;;;;;;4992244;28;20207;-72
2020/12/30 01:42:40;;;;;;;2.33;2.13;;;1.60;99.90;;;;;;4991332;28;20207;-69
2020/12/30 01:45:06;;;;;;;3.75;2.40;;;1.70;99.90;;;;;;4992230;28;20214;-72
2020/12/30 01:47:33;;;;;;;4.40;3.00;;;1.70;99.90;;;;;;4993530;28;20203;-72
2020/12/30 01:49:59;;;;;;;3.75;2.53;;;1.70;99.90;;;;;;4991923;28;20203;-69
2020/12/30 01:52:25;;;;;;;2.60;2.40;;;1.70;99.90;;;;;;4991503;28;20207;-72
2020/12/30 01:54:52;;;;;;;3.00;2.70;;;1.70;99.90;;;;;;4992201;28;20602;-70
2020/12/30 01:57:19;;;;;;;3.70;2.92;;;1.70;99.90;;;;;;4991717;28;20227;-71
2020/12/30 01:59:49;;;;;;;4.13;2.55;;;1.60;99.90;;;;;;4991888;28;20206;-71
2020/12/30 02:02:15;;;;;;;4.03;2.83;;;1.60;99.90;;;;;;4991254;28;20215;-72
2020/12/30 02:04:48;;;;;;;2.67;2.33;;;1.60;99.90;;;;;;4991549;28;20250;-73
2020/12/30 02:07:15;;;;;;;3.50;2.78;;;1.60;99.90;;;;;;4991490;28;20214;-69
2020/12/30 02:09:41;;;;;;;2.80;2.60;;;1.70;99.90;;;;;;4988344;28;20207;-72
2020/12/30 02:12:09;;;;;;;2.65;2.30;;;1.60;99.90;;;;;;4991243;28;20204;-72
2020/12/30 02:14:35;;;;;;;2.80;2.17;;;1.70;99.90;;;;;;4991053;28;20600;-72
2020/12/30 02:17:03;;;;;;;2.88;2.30;;;1.70;99.90;;;;;;4991528;28;20589;-72
2020/12/30 02:19:30;;;;;;;3.05;2.42;;;1.80;99.90;;;;;;4991112;28;20215;-70
2020/12/30 02:22:01;;;;;;;2.58;2.38;;;1.80;99.90;;;;;;4991066;28;20203;-72
2020/12/30 02:24:29;;;;;;;3.00;2.70;;;1.80;99.90;;;;;;4991088;28;20219;-72
2020/12/30 02:26:56;;;;;;;4.32;2.55;;;1.70;99.90;;;;;;4991372;28;20206;-72
2020/12/30 02:29:22;;;;;;;2.50;2.30;;;1.70;99.90;;;;;;4991033;28;20219;-71
2020/12/30 02:31:49;;;;;;;2.90;2.47;;;1.70;99.90;;;;;;4990525;28;20206;-70
2020/12/30 02:34:15;;;;;;;2.88;2.55;;;1.80;99.90;;;;;;4991149;28;20278;-71
2020/12/30 02:36:41;;;;;;;2.80;2.05;;;1.80;99.90;;;;;;4990803;28;20227;-72
2020/12/30 02:39:08;;;;;;;3.30;2.50;;;1.80;99.90;;;;;;4991100;28;20218;-71
2020/12/30 02:41:35;;;;;;;2.35;2.10;;;1.80;99.90;;;;;;4990540;28;20199;-71
2020/12/30 02:44:03;;;;;;;5.80;2.22;;;1.80;99.90;;;;;;4990808;28;20254;-71
2020/12/30 02:46:29;;;;;;;3.10;2.05;;;1.80;99.90;;;;;;4990758;28;20203;-71
2020/12/30 02:48:56;;;;;;;2.45;2.20;;;1.80;99.90;;;;;;4990971;28;20261;-71
2020/12/30 02:51:22;;;;;;;3.30;2.30;;;1.80;99.90;;;;;;4990653;28;20203;-72
2020/12/30 02:53:48;;;;;;;2.10;2.00;;;1.90;99.90;;;;;;4990053;28;20230;-72
2020/12/30 02:56:15;;;;;;;2.13;1.95;;;1.90;99.90;;;;;;4990699;28;20202;-71
2020/12/30 02:58:43;;;;;;;3.40;2.35;;;1.90;99.90;;;;;;4990376;28;20575;-71
2020/12/30 03:01:09;;;;;;;1.73;1.58;;;1.80;99.90;;;;;;4990650;28;20199;-71
2020/12/30 03:03:36;;;;;;;3.53;2.03;;;1.80;99.90;;;;;;4989888;28;20980;-71
2020/12/30 03:06:03;;;;;;;2.10;1.90;;;1.80;99.90;;;;;;4990602;28;20199;-71
2020/12/30 03:08:29;;;;;;;2.85;2.53;;;1.80;99.90;;;;;;4990295;28;20230;-70
2020/12/30 03:10:55;;;;;;;2.30;2.08;;;1.80;99.90;;;;;;4990206;28;20683;-71
2020/12/30 03:13:21;;;;;;;2.20;2.00;;;1.80;99.90;;;;;;4989658;28;20238;-72
2020/12/30 03:15:49;;;;;;;2.50;2.30;;;1.80;99.90;;;;;;4990173;28;20203;-70
2020/12/30 03:18:15;;;;;;;3.05;2.35;;;1.80;99.90;;;;;;4990318;28;20234;-71
2020/12/30 03:20:41;;;;;;;2.47;2.28;;;1.80;99.90;;;;;;4989988;28;20215;-70
2020/12/30 03:23:08;;;;;;;2.53;2.22;;;1.80;99.90;;;;;;4989864;28;20718;-70
2020/12/30 03:25:34;;;;;;;2.40;2.20;;;1.80;99.90;;;;;;4990101;28;20798;-71
2020/12/30 03:28:00;;;;;;;3.38;2.00;;;1.70;99.90;;;;;;4990265;28;20214;-71
2020/12/30 03:30:27;;;;;;;3.20;2.25;;;1.70;99.90;;;;;;4989838;28;20206;-71
2020/12/30 03:32:54;;;;;;;2.78;2.35;;;1.70;99.90;;;;;;4989576;28;20203;-71
2020/12/30 03:35:24;;;;;;;3.38;2.10;;;1.60;99.90;;;;;;4989954;28;20221;-70
2020/12/30 03:37:51;;;;;;;8.13;2.30;;;1.60;99.90;;;;;;4989956;28;20261;-70
2020/12/30 03:40:17;;;;;;;2.35;1.83;;;1.60;99.90;;;;;;4989487;28;20702;-71
2020/12/30 03:42:43;;;;;;;2.30;2.05;;;1.60;99.90;;;;;;4989220;28;20199;-71
2020/12/30 03:45:09;;;;;;;2.10;1.90;;;1.60;99.90;;;;;;4989883;28;20204;-71
2020/12/30 03:47:35;;;;;;;2.90;2.10;;;1.60;99.90;;;;;;4989874;28;20214;-71
2020/12/30 03:50:03;;;;;;;3.85;2.03;;;1.50;99.90;;;;;;4989816;28;20210;-71
2020/12/30 03:52:29;;;;;;;2.55;2.15;;;1.40;99.90;;;;;;4989255;28;20207;-71
2020/12/30 03:54:55;;;;;;;2.53;2.20;;;1.40;99.90;;;;;;4989768;28;20230;-72
2020/12/30 03:57:21;;;;;;;3.45;2.20;;;1.40;99.90;;;;;;4989655;28;20255;-70
2020/12/30 03:59:47;;;;;;;2.20;2.00;;;1.40;99.90;;;;;;4989504;28;20206;-72
2020/12/30 04:02:14;;;;;;;2.75;2.10;;;1.30;99.90;;;;;;4989121;28;20214;-71
2020/12/30 04:04:40;;;;;;;1.85;1.73;;;1.40;99.90;;;;;;4989628;28;20233;-71
2020/12/30 04:07:07;;;;;;;3.28;2.22;;;1.40;99.90;;;;;;4989815;28;20207;-71
2020/12/30 04:09:33;;;;;;;2.03;1.83;;;1.40;99.90;;;;;;4989425;28;20674;-71
2020/12/30 04:11:59;;;;;;;3.30;1.85;;;1.30;99.90;;;;;;4989016;28;20206;-72
2020/12/30 04:14:26;;;;;;;2.00;1.70;;;1.30;99.90;;;;;;4989121;28;20241;-72
2020/12/30 04:16:54;;;;;;;4.22;2.28;;;1.20;99.90;;;;;;4989435;28;20261;-71
2020/12/30 04:19:20;;;;;;;2.47;2.15;;;1.20;99.90;;;;;;4989504;28;20567;-71
2020/12/30 04:21:46;;;;;;;2.25;2.05;;;1.20;99.90;;;;;;4988838;28;20219;-72
2020/12/30 04:24:13;;;;;;;2.15;1.95;;;1.20;99.90;;;;;;4989548;28;20230;-71
2020/12/30 04:26:39;;;;;;;2.95;1.80;;;1.20;99.90;;;;;;4989465;28;20899;-71
2020/12/30 04:29:06;;;;;;;2.13;1.90;;;1.20;99.90;;;;;;4989638;28;20199;-72
2020/12/30 04:31:32;;;;;;;3.38;2.08;;;1.20;99.90;;;;;;4988997;28;20211;-70
2020/12/30 04:33:58;;;;;;;3.20;1.55;;;1.20;99.90;;;;;;4989213;28;20223;-72
2020/12/30 04:36:24;;;;;;;2.22;2.03;;;1.20;99.90;;;;;;4989131;28;20640;-70
2020/12/30 04:38:50;;;;;;;4.47;1.90;;;1.20;99.90;;;;;;4989317;28;20211;-70
2020/12/30 04:41:20;;;;;;;3.75;1.85;;;1.20;99.90;;;;;;4989341;28;21036;-70
2020/12/30 04:43:49;;;;;;;3.72;2.58;;;1.30;99.90;;;;;;4988562;28;20227;-71
2020/12/30 04:46:17;;;;;;;5.20;2.20;;;1.30;99.90;;;;;;4989281;28;20206;-70
2020/12/30 04:48:44;;;;;;;4.45;1.85;;;1.40;99.90;;;;;;4989243;28;20211;-71
2020/12/30 04:51:11;;;;;;;2.60;2.15;;;1.40;99.90;;;;;;4989417;28;20592;-71
2020/12/30 04:53:38;;;;;;;2.42;1.80;;;1.40;99.90;;;;;;4990472;28;20253;-71
2020/12/30 04:56:04;;;;;;;3.50;2.10;;;1.30;99.90;;;;;;4993002;28;20338;-71
2020/12/30 04:58:32;;;;;;;2.72;2.17;;;1.30;99.90;;;;;;4992568;28;20230;-71
2020/12/30 05:00:59;;;;;;;2.10;1.42;;;1.30;99.90;;;;;;4992943;28;20211;-70
2020/12/30 05:03:28;;;;;;;2.13;1.73;;;1.30;99.90;;;;;;4992032;28;20627;-72
2020/12/30 05:05:55;;;;;;;2.95;1.48;;;1.30;99.90;;;;;;4993013;28;20236;-71
2020/12/30 05:08:22;;;;;;;3.25;1.38;;;1.30;99.90;;;;;;4992854;28;20234;-71
2020/12/30 05:10:52;;;;;;;2.65;1.55;;;1.30;99.90;;;;;;4992486;28;20210;-71
2020/12/30 05:13:18;;;;;;;3.10;2.10;;;1.20;99.90;;;;;;4991870;28;20249;-70
2020/12/30 05:15:46;;;;;;;1.83;1.63;;;1.20;99.90;;;;;;4992277;28;20326;-72
2020/12/30 05:18:12;;;;;;;2.78;1.60;;;1.30;99.90;;;;;;4992601;28;20280;-71
2020/12/30 05:20:38;;;;;;;3.03;1.67;;;1.30;99.90;;;;;;4992325;28;20207;-71
2020/12/30 05:23:05;;;;;;;2.70;1.73;;;1.30;99.90;;;;;;4991747;28;20223;-71
2020/12/30 05:25:34;;;;;;;2.58;1.63;;;1.30;99.90;;;;;;4992254;28;20214;-71
2020/12/30 05:28:02;;;;;;;6.65;1.80;;;1.30;99.90;;;;;;4992288;28;20258;-71
2020/12/30 05:30:30;;;;;;;2.22;1.83;;;1.20;99.90;;;;;;4993490;28;20597;-70
2020/12/30 05:32:58;;;;;;;4.35;1.98;;;1.20;99.90;;;;;;4993230;28;20250;-71
2020/12/30 05:35:25;;;;;;;2.10;1.63;;;1.20;99.90;;;;;;4992018;28;20203;-72
2020/12/30 05:37:51;;;;;;;2.15;1.95;;;1.20;99.90;;;;;;4992140;28;20281;-71
2020/12/30 05:40:22;;;;;;;2.25;2.05;;;1.20;99.90;;;;;;4991930;28;20230;-70
2020/12/30 05:42:49;;;;;;;3.38;1.80;;;1.20;99.90;;;;;;4991510;28;20207;-72
2020/12/30 05:45:20;;;;;;;3.15;2.20;;;1.20;99.90;;;;;;4992058;28;20222;-72
2020/12/30 05:47:47;;;;;;;2.10;1.85;;;1.20;99.90;;;;;;4991949;28;20207;-71
2020/12/30 05:50:22;;;;;;;2.40;1.92;;;1.20;99.90;;;;;;4992038;28;20206;-70
2020/12/30 05:52:49;;;;;;;2.50;2.20;;;1.10;99.90;;;;;;4991246;28;20207;-71
2020/12/30 05:55:16;;;;;;;2.58;2.17;;;1.10;99.90;;;;;;4991896;28;20206;-72
2020/12/30 05:57:42;;;;;;;2.05;1.85;;;1.10;99.90;;;;;;4991440;28;20258;-71
2020/12/30 06:00:10;;;;;;;2.85;2.10;;;1.10;99.90;;;;;;4991712;28;20605;-70
2020/12/30 06:02:40;;;;;;;1.92;1.73;;;1.10;99.90;;;;;;4990908;28;20199;-71
2020/12/30 06:05:12;;;;;;;2.42;1.75;;;1.20;99.90;;;;;;4991377;28;20740;-72
2020/12/30 06:07:41;;;;;;;2.55;1.50;;;1.20;99.90;;;;;;4991678;28;20448;-71
2020/12/30 06:10:09;;;;;;;5.25;2.40;;;1.20;99.90;;;;;;4991655;28;20236;-70
2020/12/30 06:12:44;;;;;;;2.50;1.70;;;1.20;99.90;;;;;;4990812;28;20254;-70
2020/12/30 06:15:14;;;;;;;2.50;1.75;;;1.20;99.90;;;;;;4991318;28;20636;-71
2020/12/30 06:17:52;;;;;;;1.60;1.50;;;1.20;99.90;;;;;;4991105;28;20671;-71
2020/12/30 06:20:21;;;;;;;3.53;2.15;;;1.30;99.90;;;;;;4991215;28;20249;-70
2020/12/30 06:22:54;;;;;;;2.00;1.70;;;1.30;99.90;;;;;;4991110;28;20207;-72
2020/12/30 06:25:21;;;;;;;4.80;2.28;;;1.30;99.90;;;;;;4991247;28;20207;-70
2020/12/30 06:27:48;;;;;;;2.60;1.98;;;1.40;99.90;;;;;;4991481;28;20210;-72
2020/12/30 06:30:15;;;;;;;2.00;1.80;;;1.40;99.90;;;;;;4992076;28;20203;-70
2020/12/30 06:32:42;;;;;;;3.15;2.20;;;1.40;99.90;;;;;;4990449;28;20214;-71
2020/12/30 06:35:09;;;;;;;3.45;2.45;;;1.40;99.90;;;;;;4991489;28;20933;-71
2020/12/30 06:37:37;;;;;;;3.30;2.03;;;1.40;99.90;;;;;;4990747;28;20227;-71
2020/12/30 06:40:26;;;;;;;2.70;2.47;;;1.30;99.90;;;;;;4990745;28;20737;-70
2020/12/30 06:42:55;;;;;;;4.53;2.75;;;1.40;99.90;;;;;;4990423;28;20203;-71
2020/12/30 06:45:59;;;;;;;3.85;2.63;;;1.40;99.90;;;;;;4990857;28;20202;-70
2020/12/30 06:48:25;;;;;;;3.80;2.58;;;1.50;99.90;;;;;;4990528;28;20213;-71
2020/12/30 06:50:51;;;;;;;6.93;2.60;;;1.40;99.90;;;;;;4990765;28;20226;-72
2020/12/30 06:53:31;;;;;;;2.50;2.30;;;1.40;99.90;;;;;;4990163;28;20250;-72
2020/12/30 06:56:03;;;;;;;3.10;1.80;;;1.40;99.90;;;;;;4990734;28;20215;-71
2020/12/30 06:58:43;;;;;;;2.60;2.38;;;1.40;99.90;;;;;;4990480;28;20229;-71
2020/12/30 07:01:10;;;;;;;2.70;2.28;;;1.40;99.90;;;;;;4990496;28;20230;-72
2020/12/30 07:03:36;;;;;;;2.88;2.30;;;1.50;99.90;;;;;;4989677;28;20250;-71
2020/12/30 07:06:34;;;;;;;3.30;2.60;;;1.50;99.90;;;;;;4990423;28;20238;-71
2020/12/30 07:09:03;;;;;;;3.88;2.35;;;1.50;99.90;;;;;;4911282;29;20214;-70
2020/12/30 07:11:41;;;;;;;3.50;2.85;;;1.50;99.90;;;;;;4973372;28;20214;-71
2020/12/30 07:14:09;;;;;;;2.50;2.30;;;1.40;99.90;;;;;;5004662;23;20227;-89
2020/12/30 07:16:35;;;;;;;3.05;2.45;;;1.50;99.90;;;;;;4983410;28;20435;-91
2020/12/30 07:19:02;;;;;;;3.00;2.42;;;1.50;99.90;;;;;;4992939;28;20203;-90
2020/12/30 07:21:28;;;;;;;4.65;3.60;;;1.50;99.90;;;;;;4992670;28;20218;-90
2020/12/30 07:23:56;;;;;;;3.55;2.50;;;1.40;99.90;;;;;;4992878;28;20223;-90
2020/12/30 07:26:23;;;;;;;3.00;2.58;;;1.40;99.90;;;;;;4993657;28;20230;-90
2020/12/30 07:28:50;;;;;;;2.78;2.42;;;1.40;99.90;;;;;;4993497;28;20691;-91
2020/12/30 07:31:17;;;;;;;2.40;2.20;;;1.40;99.90;;;;;;4995114;28;20269;-90
2020/12/30 07:33:44;;;;;;;2.97;2.67;;;1.40;99.90;;;;;;4993652;28;20301;-90
2020/12/30 07:36:10;;;;;;;3.50;2.50;;;1.40;99.90;;;;;;4978150;28;20196;-89
2020/12/30 07:38:37;;;;;;;3.75;3.20;;;1.40;99.90;;;;;;4993329;28;20220;-88
2020/12/30 07:41:08;;;;;;;2.80;2.50;;;1.40;99.90;;;;;;4991579;28;20204;-91
2020/12/30 07:43:45;;;;;;;2.75;2.55;;;1.40;99.90;;;;;;4974358;28;20224;-90
2020/12/30 07:46:17;;;;;;;2.13;1.95;;;1.40;99.90;;;;;;4974660;28;20210;-89
2020/12/30 07:48:43;;;;;;;3.55;2.60;;;1.40;99.90;;;;;;4975143;28;20619;-90
2020/12/30 07:51:09;;;;;;;2.63;2.42;;;1.40;99.90;;;;;;4976457;28;20596;-91
2020/12/30 07:53:36;;;;;;;3.08;1.90;;;1.50;99.90;;;;;;4974488;28;20713;-91
2020/12/30 07:56:02;;;;;;;3.25;2.60;;;1.50;99.90;;;;;;4974414;28;20210;-91
2020/12/30 07:58:29;;;;;;;2.45;2.20;;;1.60;99.90;;;;;;4975352;28;20716;-91
2020/12/30 08:00:56;;;;;;;3.83;2.25;;;1.70;99.90;;;;;;4976433;28;20203;-91
2020/12/30 08:03:23;;;;;;;3.38;2.55;;;1.80;99.90;;;;;;4975867;28;20200;-91
2020/12/30 08:05:50;;;;;;;2.50;2.30;;;2.10;99.90;;;;;;4975001;28;20219;-91
2020/12/30 08:08:17;;;;;;;3.17;2.22;;;2.50;99.90;;;;;;4975171;28;20207;-90
2020/12/30 08:10:44;;;;;;;2.30;1.92;;;2.90;99.90;;;;;;4974151;28;20207;-91
2020/12/30 08:13:11;;;;;;;2.60;2.35;;;3.30;99.90;;;;;;4976585;28;20227;-91
2020/12/30 08:15:42;;;;;;;2.60;2.10;;;3.50;99.90;;;;;;4976655;28;20481;-90
2020/12/30 08:18:09;;;;;;;3.00;2.30;;;3.90;99.90;;;;;;4974311;28;20232;-90
2020/12/30 08:20:38;;;;;;;2.50;2.25;;;4.30;99.90;;;;;;4975728;28;20728;-90
2020/12/30 08:23:04;;;;;;;2.45;1.85;;;4.50;99.90;;;;;;4974541;28;20218;-89
2020/12/30 08:25:30;;;;;;;3.30;2.20;;;4.50;99.90;;;;;;4974754;28;20220;-91
2020/12/30 08:27:56;;;;;;;2.70;2.30;;;4.50;99.90;;;;;;4977562;28;20200;-90
2020/12/30 08:30:23;;;;;;;2.28;2.08;;;4.30;99.90;;;;;;4979836;28;20214;-89
2020/12/30 08:32:55;;;;;;;3.40;2.08;;;4.10;99.90;;;;;;4982868;28;20214;-90
2020/12/30 08:35:27;;;;;;;2.50;1.95;;;4.10;99.90;;;;;;4996913;28;20226;-90
2020/12/30 08:38:08;;;;;;;2.30;1.90;;;4.00;99.90;;;;;;4998791;28;20420;-91
2020/12/30 08:40:35;;;;;;;2.35;2.15;;;3.70;99.90;;;;;;4992561;28;20707;-90
2020/12/30 08:43:20;;;;;;;1.83;1.50;;;3.50;99.90;;;;;;4978085;28;20681;-90
2020/12/30 08:46:05;;;;;;;2.10;1.90;;;3.40;99.90;;;;;;4979231;28;20219;-91
2020/12/30 08:48:35;;;;;;;2.22;2.03;;;3.20;99.90;;;;;;4981385;28;20188;-90
2020/12/30 08:51:01;;;;;;;1.73;1.63;;;3.10;99.90;;;;;;4979054;28;20204;-91
2020/12/30 08:53:36;;;;;;;3.05;1.60;;;3.00;99.90;;;;;;4978465;28;20212;-90
2020/12/30 08:56:02;;;;;;;2.00;1.70;;;2.90;99.90;;;;;;4977873;28;20199;-90
2020/12/30 08:58:30;;;;;;;3.25;1.95;;;2.80;99.90;;;;;;4977583;28;20709;-91
2020/12/30 09:00:57;;;;;;;2.88;1.90;;;2.70;99.90;;;;;;4978996;28;20211;-90
2020/12/30 09:03:26;;;;;;;2.10;1.90;;;2.70;99.90;;;;;;4987028;28;20270;-89
2020/12/30 09:06:01;;;;;;;3.65;1.90;;;2.70;99.90;;;;;;4990832;28;20695;-90
2020/12/30 09:08:29;;;;;;;2.00;1.80;;;2.60;99.90;;;;;;4978414;28;20222;-91
2020/12/30 09:10:58;;;;;;;2.88;1.90;;;2.50;99.90;;;;;;4978795;28;20204;-91
2020/12/30 09:13:29;;;;;;;4.75;2.20;;;2.50;99.90;;;;;;4975148;28;20604;-89
2020/12/30 09:16:01;;;;;;;2.88;2.30;;;2.40;99.90;;;;;;4978609;28;20227;-89
2020/12/30 09:18:27;;;;;;;2.88;2.20;;;2.50;99.90;;;;;;4978993;28;20235;-90
2020/12/30 09:20:54;;;;;;;2.67;1.77;;;2.60;99.90;;;;;;4981223;28;20255;-89
2020/12/30 09:23:21;;;;;;;2.75;2.10;;;2.70;99.90;;;;;;4991311;28;20227;-89
2020/12/30 09:25:48;;;;;;;2.38;2.15;;;2.70;99.90;;;;;;4987072;28;20212;-89
2020/12/30 09:28:16;;;;;;;2.42;2.22;;;2.80;99.90;;;;;;4976321;28;20207;-89
2020/12/30 09:30:43;;;;;;;2.53;2.13;;;2.80;99.90;;;;;;4976101;28;20228;-91
2020/12/30 09:33:13;;;;;;;3.10;2.15;;;2.80;99.90;;;;;;4980585;28;20207;-91
2020/12/30 09:35:40;;;;;;;3.65;1.95;;;2.80;99.90;;;;;;4982045;28;20227;-91
2020/12/30 09:38:06;;;;;;;2.00;1.90;;;2.80;99.90;;;;;;4982016;28;20223;-91
2020/12/30 09:40:48;;;;;;;1.65;1.50;;;2.90;99.90;;;;;;4978979;28;20217;-91
2020/12/30 09:43:17;;;;;;;1.50;1.40;;;2.90;99.90;;;;;;4979799;28;20230;-92
2020/12/30 09:45:44;;;;;;;3.50;1.73;;;2.90;99.90;;;;;;4979998;28;20219;-90
2020/12/30 09:48:12;;;;;;;2.58;2.05;;;2.90;99.90;;;;;;4975826;28;20204;-90
2020/12/30 09:50:39;;;;;;;2.30;1.75;;;2.90;99.90;;;;;;4976423;28;20203;-90
2020/12/30 09:53:05;;;;;;;1.95;1.77;;;2.90;99.90;;;;;;4975854;28;20204;-90
2020/12/30 09:55:34;;;;;;;2.85;2.22;;;2.90;99.90;;;;;;4976291;28;20227;-89
2020/12/30 09:58:00;;;;;;;2.13;1.60;;;3.00;99.90;;;;;;4976338;28;20651;-89
2020/12/30 10:00:30;;;;;;;1.83;1.55;;;3.00;99.90;;;;;;4976487;28;20254;-89
2020/12/30 10:03:07;;;;;;;2.22;1.90;;;3.10;99.90;;;;;;4977013;28;20284;-90
2020/12/30 10:05:34;;;;;;;1.65;1.38;;;3.20;99.90;;;;;;4977051;28;20260;-90
2020/12/30 10:08:00;;;;;;;1.60;1.50;;;3.20;99.90;;;;;;4978254;28;20645;-90
2020/12/30 10:10:26;;;;;;;3.17;1.45;;;3.20;99.90;;;;;;4976859;28;20204;-90
2020/12/30 10:12:53;;;;;;;1.38;1.27;;;3.20;99.90;;;;;;4975634;28;20203;-90
2020/12/30 10:15:20;;;;;;;1.98;1.52;;;3.30;99.90;;;;;;4976122;28;20254;-90
2020/12/30 10:18:13;;;;;;;4.15;1.90;;;3.40;99.90;;;;;;4975938;28;20223;-91
2020/12/30 10:20:39;;;;;;;3.25;1.70;;;3.80;99.90;;;;;;4974593;28;20215;-89
2020/12/30 10:23:06;;;;;;;1.85;1.50;;;4.30;99.90;;;;;;4975254;28;20200;-89
2020/12/30 10:25:36;;;;;;;2.65;1.83;;;4.50;99.90;;;;;;4991671;28;20212;-90
2020/12/30 10:28:02;;;;;;;4.07;1.55;;;4.60;99.90;;;;;;4999294;28;20188;-89
2020/12/30 10:30:28;;;;;;;2.03;1.55;;;4.80;99.90;;;;;;4998728;28;20180;-90
2020/12/30 10:32:56;;;;;;;3.20;1.45;;;4.80;99.90;;;;;;4999043;28;20211;-90
2020/12/30 10:35:23;;;;;;;4.35;1.50;;;5.00;99.90;;;;;;4998882;28;20203;-89
2020/12/30 10:37:50;;;;;;;3.38;1.45;;;5.00;99.90;;;;;;4984674;28;20224;-89
2020/12/30 10:40:17;;;;;;;1.77;1.60;;;4.80;99.90;;;;;;4978734;28;20246;-89
2020/12/30 10:42:43;;;;;;;3.13;1.60;;;4.70;99.90;;;;;;4977831;28;20218;-90
2020/12/30 10:45:09;;;;;;;2.25;1.48;;;4.60;99.90;;;;;;4978142;28;20250;-90
2020/12/30 10:47:35;;;;;;;2.88;2.42;;;4.50;99.90;;;;;;4977255;28;20196;-90
2020/12/30 10:50:02;;;;;;;1.65;1.50;;;4.50;99.90;;;;;;4977177;28;20211;-91
2020/12/30 10:52:29;;;;;;;2.53;1.50;;;4.50;99.90;;;;;;4976726;28;20204;-90
2020/12/30 10:54:55;;;;;;;2.25;1.70;;;4.70;99.90;;;;;;4976011;28;20231;-90
2020/12/30 10:57:22;;;;;;;2.55;1.42;;;4.80;99.90;;;;;;4975609;28;20216;-91
2020/12/30 11:00:15;;;;;;;4.13;1.63;;;4.90;99.90;;;;;;4976452;28;20696;-90
2020/12/30 11:05:40;;;;;;;1.92;1.50;;;5.00;99.90;;;;;;4978087;23;20228;-72
2020/12/30 11:08:07;;;;;;;4.40;1.10;;;4.90;99.90;;;;;;4970983;28;20262;-72
2020/12/30 11:10:33;;;;;;;1.70;1.27;;;4.90;99.90;;;;;;4970462;28;20222;-72
2020/12/30 11:12:59;;;;;;;1.58;1.40;;;4.90;99.90;;;;;;4971214;28;20207;-71
2020/12/30 11:15:26;;;;;;;1.55;1.45;;;4.90;99.90;;;;;;4970959;28;20199;-71
2020/12/30 11:17:52;;;;;;;2.22;1.50;;;4.80;99.90;;;;;;4971257;28;20328;-73
2020/12/30 11:20:18;;;;;;;2.67;1.70;;;4.80;99.90;;;;;;4971018;28;20231;-72
2020/12/30 11:22:44;;;;;;;2.72;1.60;;;4.80;99.90;;;;;;4970173;28;20672;-72
2020/12/30 11:25:11;;;;;;;2.25;1.60;;;4.90;99.90;;;;;;4971412;28;20215;-72
2020/12/30 11:27:37;;;;;;;2.20;1.30;;;4.90;99.90;;;;;;4970431;28;20203;-72
2020/12/30 11:30:04;;;;;;;1.75;1.15;;;4.80;99.90;;;;;;4970617;28;20628;-72
2020/12/30 11:32:30;;;;;;;1.35;1.02;;;4.80;99.90;;;;;;4969775;28;20207;-71
2020/12/30 11:34:56;;;;;;;1.65;1.45;;;4.90;99.90;;;;;;4965806;28;20230;-72
2020/12/30 11:37:22;;;;;;;4.30;1.67;;;5.00;99.90;;;;;;4968696;28;20226;-71
2020/12/30 11:39:48;;;;;;;1.90;1.25;;;5.10;99.90;;;;;;4967578;28;20208;-73
2020/12/30 11:42:15;;;;;;;2.88;1.30;;;5.30;99.90;;;;;;4967210;28;20211;-71
2020/12/30 11:44:42;;;;;;;1.35;1.17;;;5.50;99.90;;;;;;4968328;28;20236;-72
2020/12/30 11:47:08;;;;;;;1.83;1.52;;;5.50;99.90;;;;;;4968703;28;20208;-72
2020/12/30 11:49:34;;;;;;;1.98;1.40;;;5.40;99.90;;;;;;4968091;28;20236;-71
2020/12/30 11:52:00;;;;;;;1.27;1.10;;;5.30;99.90;;;;;;4967793;28;20212;-72
2020/12/30 11:54:26;;;;;;;1.20;1.00;;;5.30;99.90;;;;;;4968355;28;20228;-72
2020/12/30 11:56:52;;;;;;;1.90;1.40;;;5.10;99.90;;;;;;4968220;28;20203;-72
2020/12/30 11:59:20;;;;;;;1.20;1.10;;;4.90;99.90;;;;;;4968322;28;20208;-72
2020/12/30 12:01:46;;;;;;;1.98;1.45;;;4.80;99.90;;;;;;4966806;28;20317;-72
2020/12/30 12:04:13;;;;;;;2.00;1.40;;;4.70;99.90;;;;;;4967395;28;20250;-71
2020/12/30 12:06:39;;;;;;;1.90;1.20;;;4.70;99.90;;;;;;4967356;28;20219;-71
2020/12/30 12:09:05;;;;;;;1.40;1.30;;;4.50;99.90;;;;;;4967907;28;20199;-71
2020/12/30 12:11:31;;;;;;;1.80;1.50;;;4.40;99.90;;;;;;4966033;28;20207;-71
2020/12/30 12:13:57;;;;;;;3.78;2.40;;;4.30;99.90;;;;;;4973744;28;20230;-71
2020/12/30 12:16:24;;;;;;;1.80;1.48;;;4.30;99.90;;;;;;4986576;28;20214;-72
2020/12/30 12:18:51;;;;;;;2.60;1.70;;;4.30;99.90;;;;;;4963137;28;20246;-72
2020/12/30 12:21:17;;;;;;;2.13;1.48;;;4.30;99.90;;;;;;4964643;28;20231;-72
2020/12/30 12:23:43;;;;;;;1.88;1.38;;;4.30;99.90;;;;;;4964619;28;20231;-71
2020/12/30 12:26:09;;;;;;;3.30;1.70;;;4.30;99.90;;;;;;4964347;28;20903;-70
2020/12/30 12:28:38;;;;;;;2.00;1.60;;;4.40;99.90;;;;;;4964256;28;20585;-71
2020/12/30 12:31:04;;;;;;;2.10;1.80;;;4.30;99.90;;;;;;4964605;28;20680;-71
2020/12/30 12:33:32;;;;;;;2.10;1.73;;;4.50;99.90;;;;;;4962738;28;20617;-71
2020/12/30 12:35:58;;;;;;;2.35;1.48;;;4.60;99.90;;;;;;4964571;28;20208;-71
2020/12/30 12:38:24;;;;;;;2.58;1.83;;;4.70;99.90;;;;;;4964125;28;20603;-72
2020/12/30 12:40:50;;;;;;;2.63;1.77;;;4.90;99.90;;;;;;4964355;28;20204;-71
2020/12/30 12:43:16;;;;;;;4.63;2.30;;;4.70;99.90;;;;;;4964452;28;20231;-71
2020/12/30 12:45:43;;;;;;;2.20;2.00;;;4.80;99.90;;;;;;4964342;28;20237;-71
2020/12/30 12:48:09;;;;;;;2.78;1.80;;;4.90;99.90;;;;;;4964635;28;20691;-71
2020/12/30 12:50:36;;;;;;;2.38;2.08;;;4.90;99.90;;;;;;4963575;28;20469;-72
2020/12/30 12:53:02;;;;;;;3.85;2.15;;;4.90;99.90;;;;;;4963745;28;20236;-71
2020/12/30 12:55:28;;;;;;;2.35;2.00;;;5.10;99.90;;;;;;4964020;28;20207;-71
2020/12/30 12:57:54;;;;;;;2.28;1.80;;;5.30;99.90;;;;;;4964123;28;20235;-72
2020/12/30 13:00:21;;;;;;;2.28;2.08;;;5.40;99.90;;;;;;4964557;28;20212;-71
2020/12/30 13:02:47;;;;;;;2.15;1.83;;;5.60;99.90;;;;;;4962945;28;20207;-71
2020/12/30 13:05:13;;;;;;;3.10;2.50;;;5.50;99.90;;;;;;4965033;28;20215;-71